Terminal Aerodrome Forecast
Issued by NWS

Home | Current Version | Previous Version | Text Only | Print | Product List | Glossary On
Versions: 1 2 3 4 5 6 7 8 9 10 11 12 13 14 15 16
000
FTUS43 KDLH 270529
TAFHYR
TAF
KHYR 270529Z 2706/2806 VRB02KT P6SM VCSH SCT060 BKN100
      TEMPO 2706/2710 6SM -SHRA BKN040
     FM271200 VRB05KT P6SM VCTS SCT040CB OVC060
     FM271800 05007KT P6SM VCSH SCT030 OVC050=

USA.gov is the U.S. government's official web portal to all federal, state and local government web resources and services.